Airfield :
LOGIN :

Register | Disclaimer

   EN    FR    IT 

 










Legend :    VFR   Marginal VFR   IFR   Intensive IFR   Very Intensive IFR
Visi :
Ceiling :
>= 8 km
>= 3000ft
5 to 8 km
1000 to 3000 ft
1500m to 5 km
500 to 1000 ft
800 to 1500m
200 to 500 ft
< 800m
< 200 ft
Symbols :   Thunderstorms  Fog  Heavy snow  Heavy precipitations  Wind > 20 kt
SIGMETs :     Misc.  Thunderstorms  Icing  Turbulence  Mountain Waves  Volcanic Ashes






- Airport Elevation : 776 ft
- IATA code : RMS


ETAR - Ramstein Air Base

CURRENT METAR :
  • 231256Z 06008KT 9999 OVC012 14/12 A2995 RMK AO2A SLP148 T01370124 $

EXPIRED METARs :
  • 231226Z AUTO 07008KT 9999 OVC011 14/12 A2996 RMK AO2 SLP150 $
  • 231156Z 05008KT 9999 OVC010 13/12 A2997 RMK AO2A SLP153 T01320124 10132 20096 58012 $
  • 231126Z 07009KT 9999 OVC010 13/12 A2998 RMK AO2A SLP158 $
  • 231106Z 10009KT 9999 OVC009 13/12 A2998 RMK AO2A SLP158 $
  • 231056Z 06007KT 9999 OVC008 13/13 A2998 RMK AO2A SLP157 T01280125 $

TAF AMD TAF ETAR
Valid from the 23 at 11:00 until the 24 at 16:00 UTC


231142Z 2311/2416 08009KT 8000 BR OVC010 QNH2990INS
BECMG 2316/2317 VRB06KT 8000 BR OVC007 QNH2979INS
BECMG 2402/2403 VRB06KT 6000 BR OVC005 QNH2980INS
TEMPO 2404/2407 3200 BR
BECMG 2411/2412 23008KT 9999 BR FEW015 QNH2986INS TX18/2414Z TN08/2403Z



MET'MAP, your aeronautical weather chart ! - Copyright ORBIFLY December 2007 - Disclaimer

ORBIFLY MET'MAP TEAM :

Programming & Development : Alexandra Zaïnal
Concept & Development : Baudouin d'Aumeries
Co-Development & Prog : Marc-Olivier Méhu
Technical & hardware support : Manuel Goepfert

Contact : metmap@orbifly.com




SOURCES & CREDITS :

   NOAA